Seastreak Highlands — WDE4031 — position and weather

sailwx.info

Track history (hours):
 
Tides and Currents Weather Stations Pressure Air Temp Water Temp Dewpoint Dewpoint Depression Visibility Wind Speed Wind Dir Waves Ship Positions

Seastreak Highlands

Owner: Seastreak llc, atlantic highlands, NJ. More information available from US FCC via Universal Licensing System and Coast Guard Vessel Documentation Center.

Last reported at 2018-Jun-21 23:01 UTC. Time now 2018-Jun-22 00:02 UTC.
Position N 40°36' W 074°03'.

Length 44 m; draft 3.4 m.

Type: High speed craft. MMSI: 367347670.

Date/timePositionNaut miles runAvg speedWind from/ knotsBaromVisibWave heightAir tempDewpointWater temp
2018-Jun-21 23:01N 40°36' W 074°03'035.6
2018-Jun-21 23:00N 40°36' W 074°03'917.4
2018-Jun-21 22:29N 40°45' W 073°58'917.7
2018-Jun-21 22:00N 40°37' W 074°03'3 3.7
2018-Jun-21 21:03N 40°33' W 074°02'232.6
2018-Jun-21 20:59N 40°35' W 074°03'817.8
2018-Jun-21 20:30N 40°43' W 073°58'2 3.3
2018-Jun-21 20:01N 40°45' W 073°58'0 0.0
2018-Jun-21 19:30N 40°45' W 073°58'0 0.0
2018-Jun-21 19:00N 40°45' W 073°58'0 0.0
2018-Jun-21 18:31N 40°45' W 073°58'0 0.0
2018-Jun-21 18:01N 40°45' W 073°58'0 0.0
2018-Jun-21 17:31N 40°45' W 073°58'2 4.2
2018-Jun-21 17:01N 40°43' W 073°59'7 5.0
2018-Jun-21 15:35N 40°36' W 074°03'235.9
2018-Jun-21 15:30N 40°39' W 074°02'713.6
2018-Jun-21 15:00N 40°45' W 073°58'0 0.0
2018-Jun-21 14:30N 40°45' W 073°58'0 0.0
2018-Jun-21 14:01N 40°45' W 073°58'4 7.8
2018-Jun-21 13:31N 40°41' W 074°01'8 7.8
2018-Jun-21 12:29N 40°33' W 074°02'1224.3
2018-Jun-21 12:01N 40°45' W 073°58'815.0
2018-Jun-21 11:31N 40°38' W 074°03'2 0.2
2018-Jun-20 22:59N 40°36' W 074°03'919.1
2018-Jun-20 22:30N 40°45' W 073°58'715.0
2018-Jun-20 22:01N 40°38' W 074°03'2 1.9
2018-Jun-20 20:55N 40°36' W 074°03'718.0
2018-Jun-20 20:31N 40°43' W 073°59'2 4.1
2018-Jun-20 20:00N 40°45' W 073°58'0 0.0
2018-Jun-20 19:30N 40°45' W 073°58'0 0.0
2018-Jun-20 19:00N 40°45' W 073°58'0 0.0
2018-Jun-20 18:30N 40°45' W 073°58'0 0.0
2018-Jun-20 18:00N 40°45' W 073°58'0 0.0
2018-Jun-20 17:30N 40°45' W 073°58'0 0.0
2018-Jun-20 17:00N 40°45' W 073°58'0 0.0
2018-Jun-20 16:30N 40°45' W 073°58'0 0.0
2018-Jun-20 16:00N 40°45' W 073°58'0 0.0
2018-Jun-20 15:30N 40°45' W 073°58'0 0.0
2018-Jun-20 14:59N 40°45' W 073°58'0 0.0
2018-Jun-20 14:29N 40°45' W 073°58'0 0.0
2018-Jun-20 14:00N 40°45' W 073°58'3 6.6
2018-Jun-20 13:31N 40°42' W 074°00'7 7.2
2018-Jun-20 12:29N 40°35' W 074°03'1121.9
2018-Jun-20 12:00N 40°45' W 073°58'713.7
2018-Jun-20 11:31N 40°39' W 074°02'2 0.2
2018-Jun-19 22:59N 40°36' W 074°03'917.5
2018-Jun-19 22:27N 40°45' W 073°58'715.7
2018-Jun-19 22:01N 40°38' W 074°02'2 2.2
2018-Jun-19 20:54N 40°36' W 074°03'717.9
2018-Jun-19 20:31N 40°43' W 073°59'2 4.2
2018-Jun-19 20:00N 40°45' W 073°58'0 0.0
2018-Jun-19 19:30N 40°45' W 073°58'0 0.0
2018-Jun-19 19:00N 40°45' W 073°58'0 0.0
2018-Jun-19 18:30N 40°45' W 073°58'0 0.0
2018-Jun-19 18:00N 40°45' W 073°58'0 0.0
2018-Jun-19 17:30N 40°45' W 073°58'0 0.0
2018-Jun-19 17:01N 40°45' W 073°58'0 0.0
2018-Jun-19 16:30N 40°45' W 073°58'0 0.0
2018-Jun-19 16:00N 40°45' W 073°58'0 0.0
2018-Jun-19 15:31N 40°45' W 073°58'0 0.0
2018-Jun-19 15:00N 40°45' W 073°58'0 0.0
2018-Jun-19 14:30N 40°45' W 073°58'0 0.0
2018-Jun-19 14:00N 40°45' W 073°58'510.0
2018-Jun-19 13:31N 40°40' W 074°01'6 5.3
2018-Jun-19 12:27N 40°35' W 074°02'1022.9
2018-Jun-19 12:00N 40°45' W 073°58'815.6
2018-Jun-19 11:30N 40°38' W 074°03'12 0.5
2018-Jun-18 11:24N 40°25' W 074°02'0 0.0
2018-Jun-18 11:00N 40°25' W 074°02'0 0.0
2018-Jun-18 10:17N 40°25' W 074°02'0 0.0
2018-Jun-18 09:42N 40°25' W 074°02'0 0.0
2018-Jun-18 09:30N 40°25' W 074°02'0 0.0
2018-Jun-18 09:00N 40°25' W 074°02'0 0.0
2018-Jun-18 08:21N 40°25' W 074°02'0 0.0
2018-Jun-18 06:01N 40°25' W 074°02'9 0.2
2018-Jun-16 02:20N 40°34' W 074°02'824.7
2018-Jun-16 02:00N 40°42' W 074°00'3 5.9
2018-Jun-16 01:30N 40°45' W 073°58'1019.4
2018-Jun-16 01:01N 40°36' W 074°03'0 0.2
2018-Jun-15 22:38N 40°36' W 074°02'432.6
2018-Jun-15 22:31N 40°40' W 074°03'611.7
2018-Jun-15 22:00N 40°45' W 073°58'9 6.4
2018-Jun-15 20:34N 40°36' W 074°03'233.6
2018-Jun-15 20:30N 40°38' W 074°03'815.1
2018-Jun-15 20:00N 40°45' W 073°58'9 4.5
2018-Jun-15 17:55N 40°36' W 074°03'716.8
2018-Jun-15 17:30N 40°42' W 073°60'2 3.3
2018-Jun-15 17:01N 40°41' W 074°02'5 4.0
2018-Jun-15 15:41N 40°36' W 074°03'530.7
2018-Jun-15 15:31N 40°41' W 074°02'3 6.6
2018-Jun-15 15:01N 40°43' W 073°58'612.9
2018-Jun-15 14:31N 40°38' W 074°03'5 4.2
2018-Jun-15 13:24N 40°34' W 074°02'922.1
2018-Jun-15 13:00N 40°42' W 074°00'3 5.8
2018-Jun-15 12:30N 40°45' W 073°58'714.1
2018-Jun-15 12:00N 40°39' W 074°03'4 0.5
2018-Jun-15 02:25N 40°34' W 074°02'818.5
2018-Jun-15 02:00N 40°42' W 074°00'3 6.0
2018-Jun-15 01:30N 40°45' W 073°58'918.7
2018-Jun-15 01:00N 40°36' W 074°02'2 0.9
2018-Jun-14 22:47N 40°34' W 074°02'828.8
2018-Jun-14 22:31N 40°41' W 074°01'4 7.3
2018-Jun-14 22:01N 40°45' W 073°58'9 6.7
2018-Jun-14 20:37N 40°36' W 074°03'433.4
2018-Jun-14 20:31N 40°40' W 074°03'612.6
2018-Jun-14 20:00N 40°45' W 073°58'1122.9
2018-Jun-14 19:31N 40°34' W 074°02'0 0.1
2018-Jun-14 17:59N 40°34' W 074°02'918.7
2018-Jun-14 17:31N 40°42' W 073°60'3 5.8
2018-Jun-14 17:01N 40°40' W 074°03'4 3.2
2018-Jun-14 15:40N 40°36' W 074°03'428.5
2018-Jun-14 15:31N 40°40' W 074°02'510.3
2018-Jun-14 15:00N 40°44' W 073°58'816.8
2018-Jun-14 14:30N 40°37' W 074°03'1 0.5
2018-Jun-14 13:21N 40°36' W 074°03'618.3
2018-Jun-14 13:00N 40°42' W 074°00'3 5.8
2018-Jun-14 12:30N 40°45' W 073°58'714.1
2018-Jun-14 12:01N 40°39' W 074°03'4 0.4
2018-Jun-14 02:20N 40°35' W 074°02'723.1
2018-Jun-14 02:00N 40°42' W 074°00'3 5.9
2018-Jun-14 01:30N 40°45' W 073°58'916.9
2018-Jun-14 00:59N 40°37' W 074°03'0 0.2
2018-Jun-13 22:34N 40°36' W 074°03'229.9
2018-Jun-13 22:30N 40°38' W 074°03'715.1
2018-Jun-13 22:00N 40°45' W 073°58'918.5
2018-Jun-13 21:30N 40°36' W 074°03'3 3.3
2018-Jun-13 20:35N 40°33' W 074°02'334.0
2018-Jun-13 20:30N 40°36' W 074°03'917.6
2018-Jun-13 20:01N 40°44' W 073°58'816.2
2018-Jun-13 19:30N 40°37' W 074°03'2 1.5
2018-Jun-13 17:59N 40°34' W 074°02'817.7
2018-Jun-13 17:30N 40°42' W 073°60'1 1.8
2018-Jun-13 17:01N 40°42' W 074°01'9 6.7
2018-Jun-13 15:44N 40°33' W 074°02'729.6
2018-Jun-13 15:31N 40°40' W 074°03'510.1
2018-Jun-13 15:00N 40°44' W 073°58'815.0
2018-Jun-13 14:30N 40°37' W 074°03'4 3.5
2018-Jun-13 13:24N 40°33' W 074°02'922.8
2018-Jun-13 13:00N 40°42' W 074°00'3 5.7
2018-Jun-13 12:30N 40°45' W 073°58'611.5
2018-Jun-13 12:00N 40°40' W 074°03'  
Track history (hours):
 
Tides and Currents Weather Stations Pressure Air Temp Water Temp Dewpoint Dewpoint Depression Visibility Wind Speed Wind Dir Waves Ship Positions

Seastreak Highlands

Owner: Seastreak llc, atlantic highlands, NJ. More information available from US FCC via Universal Licensing System and Coast Guard Vessel Documentation Center.

Last reported at 2018-Jun-21 23:01 UTC. Time now 2018-Jun-22 00:02 UTC.
Position N 40°36' W 074°03'.

Length 44 m; draft 3.4 m.

Type: High speed craft. MMSI: 367347670.

Date/timePositionNaut miles runAvg speedWind from/ knotsBaromVisibWave heightAir tempDewpointWater temp
2018-Jun-21 23:01N 40°36' W 074°03'035.6
2018-Jun-21 23:00N 40°36' W 074°03'917.4
2018-Jun-21 22:29N 40°45' W 073°58'917.7
2018-Jun-21 22:00N 40°37' W 074°03'3 3.7
2018-Jun-21 21:03N 40°33' W 074°02'232.6
2018-Jun-21 20:59N 40°35' W 074°03'817.8
2018-Jun-21 20:30N 40°43' W 073°58'2 3.3
2018-Jun-21 20:01N 40°45' W 073°58'0 0.0
2018-Jun-21 19:30N 40°45' W 073°58'0 0.0
2018-Jun-21 19:00N 40°45' W 073°58'0 0.0
2018-Jun-21 18:31N 40°45' W 073°58'0 0.0
2018-Jun-21 18:01N 40°45' W 073°58'0 0.0
2018-Jun-21 17:31N 40°45' W 073°58'2 4.2
2018-Jun-21 17:01N 40°43' W 073°59'7 5.0
2018-Jun-21 15:35N 40°36' W 074°03'235.9
2018-Jun-21 15:30N 40°39' W 074°02'713.6
2018-Jun-21 15:00N 40°45' W 073°58'0 0.0
2018-Jun-21 14:30N 40°45' W 073°58'0 0.0
2018-Jun-21 14:01N 40°45' W 073°58'4 7.8
2018-Jun-21 13:31N 40°41' W 074°01'8 7.8
2018-Jun-21 12:29N 40°33' W 074°02'1224.3
2018-Jun-21 12:01N 40°45' W 073°58'815.0
2018-Jun-21 11:31N 40°38' W 074°03'2 0.2
2018-Jun-20 22:59N 40°36' W 074°03'919.1
2018-Jun-20 22:30N 40°45' W 073°58'715.0
2018-Jun-20 22:01N 40°38' W 074°03'2 1.9
2018-Jun-20 20:55N 40°36' W 074°03'718.0
2018-Jun-20 20:31N 40°43' W 073°59'2 4.1
2018-Jun-20 20:00N 40°45' W 073°58'0 0.0
2018-Jun-20 19:30N 40°45' W 073°58'0 0.0
2018-Jun-20 19:00N 40°45' W 073°58'0 0.0
2018-Jun-20 18:30N 40°45' W 073°58'0 0.0
2018-Jun-20 18:00N 40°45' W 073°58'0 0.0
2018-Jun-20 17:30N 40°45' W 073°58'0 0.0
2018-Jun-20 17:00N 40°45' W 073°58'0 0.0
2018-Jun-20 16:30N 40°45' W 073°58'0 0.0
2018-Jun-20 16:00N 40°45' W 073°58'0 0.0
2018-Jun-20 15:30N 40°45' W 073°58'0 0.0
2018-Jun-20 14:59N 40°45' W 073°58'0 0.0
2018-Jun-20 14:29N 40°45' W 073°58'0 0.0
2018-Jun-20 14:00N 40°45' W 073°58'3 6.6
2018-Jun-20 13:31N 40°42' W 074°00'7 7.2
2018-Jun-20 12:29N 40°35' W 074°03'1121.9
2018-Jun-20 12:00N 40°45' W 073°58'713.7
2018-Jun-20 11:31N 40°39' W 074°02'2 0.2
2018-Jun-19 22:59N 40°36' W 074°03'917.5
2018-Jun-19 22:27N 40°45' W 073°58'715.7
2018-Jun-19 22:01N 40°38' W 074°02'2 2.2
2018-Jun-19 20:54N 40°36' W 074°03'717.9
2018-Jun-19 20:31N 40°43' W 073°59'2 4.2
2018-Jun-19 20:00N 40°45' W 073°58'0 0.0
2018-Jun-19 19:30N 40°45' W 073°58'0 0.0
2018-Jun-19 19:00N 40°45' W 073°58'0 0.0
2018-Jun-19 18:30N 40°45' W 073°58'0 0.0
2018-Jun-19 18:00N 40°45' W 073°58'0 0.0
2018-Jun-19 17:30N 40°45' W 073°58'0 0.0
2018-Jun-19 17:01N 40°45' W 073°58'0 0.0
2018-Jun-19 16:30N 40°45' W 073°58'0 0.0
2018-Jun-19 16:00N 40°45' W 073°58'0 0.0
2018-Jun-19 15:31N 40°45' W 073°58'0 0.0
2018-Jun-19 15:00N 40°45' W 073°58'0 0.0
2018-Jun-19 14:30N 40°45' W 073°58'0 0.0
2018-Jun-19 14:00N 40°45' W 073°58'510.0
2018-Jun-19 13:31N 40°40' W 074°01'6 5.3
2018-Jun-19 12:27N 40°35' W 074°02'1022.9
2018-Jun-19 12:00N 40°45' W 073°58'815.6
2018-Jun-19 11:30N 40°38' W 074°03'12 0.5
2018-Jun-18 11:24N 40°25' W 074°02'0 0.0
2018-Jun-18 11:00N 40°25' W 074°02'0 0.0
2018-Jun-18 10:17N 40°25' W 074°02'0 0.0
2018-Jun-18 09:42N 40°25' W 074°02'0 0.0
2018-Jun-18 09:30N 40°25' W 074°02'0 0.0
2018-Jun-18 09:00N 40°25' W 074°02'0 0.0
2018-Jun-18 08:21N 40°25' W 074°02'0 0.0
2018-Jun-18 06:01N 40°25' W 074°02'9 0.2
2018-Jun-16 02:20N 40°34' W 074°02'824.7
2018-Jun-16 02:00N 40°42' W 074°00'3 5.9
2018-Jun-16 01:30N 40°45' W 073°58'1019.4
2018-Jun-16 01:01N 40°36' W 074°03'0 0.2
2018-Jun-15 22:38N 40°36' W 074°02'432.6
2018-Jun-15 22:31N 40°40' W 074°03'611.7
2018-Jun-15 22:00N 40°45' W 073°58'9 6.4
2018-Jun-15 20:34N 40°36' W 074°03'233.6
2018-Jun-15 20:30N 40°38' W 074°03'815.1
2018-Jun-15 20:00N 40°45' W 073°58'9 4.5
2018-Jun-15 17:55N 40°36' W 074°03'716.8
2018-Jun-15 17:30N 40°42' W 073°60'2 3.3
2018-Jun-15 17:01N 40°41' W 074°02'5 4.0
2018-Jun-15 15:41N 40°36' W 074°03'530.7
2018-Jun-15 15:31N 40°41' W 074°02'3 6.6
2018-Jun-15 15:01N 40°43' W 073°58'612.9
2018-Jun-15 14:31N 40°38' W 074°03'5 4.2
2018-Jun-15 13:24N 40°34' W 074°02'922.1
2018-Jun-15 13:00N 40°42' W 074°00'3 5.8
2018-Jun-15 12:30N 40°45' W 073°58'714.1
2018-Jun-15 12:00N 40°39' W 074°03'4 0.5
2018-Jun-15 02:25N 40°34' W 074°02'818.5
2018-Jun-15 02:00N 40°42' W 074°00'3 6.0
2018-Jun-15 01:30N 40°45' W 073°58'918.7
2018-Jun-15 01:00N 40°36' W 074°02'2 0.9
2018-Jun-14 22:47N 40°34' W 074°02'828.8
2018-Jun-14 22:31N 40°41' W 074°01'4 7.3
2018-Jun-14 22:01N 40°45' W 073°58'9 6.7
2018-Jun-14 20:37N 40°36' W 074°03'433.4
2018-Jun-14 20:31N 40°40' W 074°03'612.6
2018-Jun-14 20:00N 40°45' W 073°58'1122.9
2018-Jun-14 19:31N 40°34' W 074°02'0 0.1
2018-Jun-14 17:59N 40°34' W 074°02'918.7
2018-Jun-14 17:31N 40°42' W 073°60'3 5.8
2018-Jun-14 17:01N 40°40' W 074°03'4 3.2
2018-Jun-14 15:40N 40°36' W 074°03'428.5
2018-Jun-14 15:31N 40°40' W 074°02'510.3
2018-Jun-14 15:00N 40°44' W 073°58'816.8
2018-Jun-14 14:30N 40°37' W 074°03'1 0.5
2018-Jun-14 13:21N 40°36' W 074°03'618.3
2018-Jun-14 13:00N 40°42' W 074°00'3 5.8
2018-Jun-14 12:30N 40°45' W 073°58'714.1
2018-Jun-14 12:01N 40°39' W 074°03'4 0.4
2018-Jun-14 02:20N 40°35' W 074°02'723.1
2018-Jun-14 02:00N 40°42' W 074°00'3 5.9
2018-Jun-14 01:30N 40°45' W 073°58'916.9
2018-Jun-14 00:59N 40°37' W 074°03'0 0.2
2018-Jun-13 22:34N 40°36' W 074°03'229.9
2018-Jun-13 22:30N 40°38' W 074°03'715.1
2018-Jun-13 22:00N 40°45' W 073°58'918.5
2018-Jun-13 21:30N 40°36' W 074°03'3 3.3
2018-Jun-13 20:35N 40°33' W 074°02'334.0
2018-Jun-13 20:30N 40°36' W 074°03'917.6
2018-Jun-13 20:01N 40°44' W 073°58'816.2
2018-Jun-13 19:30N 40°37' W 074°03'2 1.5
2018-Jun-13 17:59N 40°34' W 074°02'817.7
2018-Jun-13 17:30N 40°42' W 073°60'1 1.8
2018-Jun-13 17:01N 40°42' W 074°01'9 6.7
2018-Jun-13 15:44N 40°33' W 074°02'729.6
2018-Jun-13 15:31N 40°40' W 074°03'510.1
2018-Jun-13 15:00N 40°44' W 073°58'815.0
2018-Jun-13 14:30N 40°37' W 074°03'4 3.5
2018-Jun-13 13:24N 40°33' W 074°02'922.8
2018-Jun-13 13:00N 40°42' W 074°00'3 5.7
2018-Jun-13 12:30N 40°45' W 073°58'611.5
2018-Jun-13 12:00N 40°40' W 074°03'  

Dump ship's entire track history